sensor_id;sensor_type;location;lat;lon;timestamp;temperature;humidity
148;DHT22;142;50.652;12.216;2022-07-04T00:00:47;19.40;68.10
148;DHT22;142;50.652;12.216;2022-07-04T00:03:14;19.40;68.10
148;DHT22;142;50.652;12.216;2022-07-04T00:05:41;19.30;68.10
148;DHT22;142;50.652;12.216;2022-07-04T00:08:10;19.30;68.00
148;DHT22;142;50.652;12.216;2022-07-04T00:10:37;19.20;68.00
148;DHT22;142;50.652;12.216;2022-07-04T00:13:04;19.10;68.00
148;DHT22;142;50.652;12.216;2022-07-04T00:15:32;19.10;68.00
148;DHT22;142;50.652;12.216;2022-07-04T00:17:59;19.10;68.10
148;DHT22;142;50.652;12.216;2022-07-04T00:20:26;19.00;68.10
148;DHT22;142;50.652;12.216;2022-07-04T00:22:53;19.00;68.10
148;DHT22;142;50.652;12.216;2022-07-04T00:25:22;19.00;68.10
148;DHT22;142;50.652;12.216;2022-07-04T00:27:49;18.90;68.10
148;DHT22;142;50.652;12.216;2022-07-04T00:30:16;18.90;68.00
148;DHT22;142;50.652;12.216;2022-07-04T00:32:43;19.00;68.10
148;DHT22;142;50.652;12.216;2022-07-04T00:35:10;19.00;68.10
148;DHT22;142;50.652;12.216;2022-07-04T00:37:37;19.00;67.90
148;DHT22;142;50.652;12.216;2022-07-04T00:40:05;19.00;68.00
148;DHT22;142;50.652;12.216;2022-07-04T00:42:34;19.00;67.90
148;DHT22;142;50.652;12.216;2022-07-04T00:45:01;18.90;68.00
148;DHT22;142;50.652;12.216;2022-07-04T00:47:28;18.90;68.10
148;DHT22;142;50.652;12.216;2022-07-04T00:49:55;18.80;68.10
148;DHT22;142;50.652;12.216;2022-07-04T00:52:22;18.70;68.20
148;DHT22;142;50.652;12.216;2022-07-04T00:54:50;18.70;68.20
148;DHT22;142;50.652;12.216;2022-07-04T00:57:17;18.60;68.20
148;DHT22;142;50.652;12.216;2022-07-04T00:59:46;18.60;68.20
148;DHT22;142;50.652;12.216;2022-07-04T01:02:13;18.50;68.20
148;DHT22;142;50.652;12.216;2022-07-04T01:04:40;18.40;68.30
148;DHT22;142;50.652;12.216;2022-07-04T01:07:08;18.30;68.30
148;DHT22;142;50.652;12.216;2022-07-04T01:09:37;18.30;68.30
148;DHT22;142;50.652;12.216;2022-07-04T01:12:05;18.40;68.30
148;DHT22;142;50.652;12.216;2022-07-04T01:14:32;18.30;68.30
148;DHT22;142;50.652;12.216;2022-07-04T01:17:05;18.30;68.30
148;DHT22;142;50.652;12.216;2022-07-04T01:19:32;18.30;68.20
148;DHT22;142;50.652;12.216;2022-07-04T01:22:05;18.30;68.30
148;DHT22;142;50.652;12.216;2022-07-04T01:24:33;18.30;68.40
148;DHT22;142;50.652;12.216;2022-07-04T01:27:00;18.30;68.40
148;DHT22;142;50.652;12.216;2022-07-04T01:29:28;18.30;68.40
148;DHT22;142;50.652;12.216;2022-07-04T01:31:55;18.30;68.30
148;DHT22;142;50.652;12.216;2022-07-04T01:34:22;18.30;68.20
148;DHT22;142;50.652;12.216;2022-07-04T01:36:49;18.20;68.20
148;DHT22;142;50.652;12.216;2022-07-04T01:39:18;18.10;68.20
148;DHT22;142;50.652;12.216;2022-07-04T01:41:44;18.00;68.40
148;DHT22;142;50.652;12.216;2022-07-04T01:44:12;18.00;68.50
148;DHT22;142;50.652;12.216;2022-07-04T01:46:39;17.90;68.60
148;DHT22;142;50.652;12.216;2022-07-04T01:49:06;17.90;68.60
148;DHT22;142;50.652;12.216;2022-07-04T01:51:34;17.80;68.80
148;DHT22;142;50.652;12.216;2022-07-04T01:54:01;17.70;68.70
148;DHT22;142;50.652;12.216;2022-07-04T01:56:30;17.80;69.10
148;DHT22;142;50.652;12.216;2022-07-04T01:58:56;17.70;68.90
148;DHT22;142;50.652;12.216;2022-07-04T02:01:24;17.70;69.00
148;DHT22;142;50.652;12.216;2022-07-04T02:03:57;17.70;68.80
148;DHT22;142;50.652;12.216;2022-07-04T02:06:24;17.70;68.80
148;DHT22;142;50.652;12.216;2022-07-04T02:08:51;17.60;68.90
148;DHT22;142;50.652;12.216;2022-07-04T02:11:37;17.60;68.90
148;DHT22;142;50.652;12.216;2022-07-04T02:14:21;17.70;69.20
148;DHT22;142;50.652;12.216;2022-07-04T02:16:49;17.70;69.00
148;DHT22;142;50.652;12.216;2022-07-04T02:19:16;17.60;68.70
148;DHT22;142;50.652;12.216;2022-07-04T02:21:44;17.60;69.10
148;DHT22;142;50.652;12.216;2022-07-04T02:24:11;17.60;69.00
148;DHT22;142;50.652;12.216;2022-07-04T02:26:40;17.60;69.10
148;DHT22;142;50.652;12.216;2022-07-04T02:29:06;17.60;69.00
148;DHT22;142;50.652;12.216;2022-07-04T02:31:33;17.60;69.00
148;DHT22;142;50.652;12.216;2022-07-04T02:34:01;17.60;69.10
148;DHT22;142;50.652;12.216;2022-07-04T02:36:28;17.60;69.20
148;DHT22;142;50.652;12.216;2022-07-04T02:38:55;17.50;69.10
148;DHT22;142;50.652;12.216;2022-07-04T02:41:22;17.50;69.00
148;DHT22;142;50.652;12.216;2022-07-04T02:43:51;17.40;69.20
148;DHT22;142;50.652;12.216;2022-07-04T02:46:18;17.40;69.40
148;DHT22;142;50.652;12.216;2022-07-04T02:48:45;17.40;69.50
148;DHT22;142;50.652;12.216;2022-07-04T02:51:12;17.40;69.50
148;DHT22;142;50.652;12.216;2022-07-04T02:53:39;17.40;69.50
148;DHT22;142;50.652;12.216;2022-07-04T02:56:06;17.40;69.50
148;DHT22;142;50.652;12.216;2022-07-04T02:58:33;17.40;69.70
148;DHT22;142;50.652;12.216;2022-07-04T03:01:02;17.40;69.60
